createdAt,value
2023-03-19T00:02:12.213Z,3.87
2023-03-19T00:04:43.493Z,4.30
2023-03-19T00:07:10.072Z,4.33
2023-03-19T00:09:36.671Z,4.53
2023-03-19T00:12:03.462Z,4.27
2023-03-19T00:14:29.987Z,4.00
2023-03-19T00:16:56.841Z,3.83
2023-03-19T00:19:23.423Z,4.70
2023-03-19T00:21:49.915Z,4.17
2023-03-19T00:24:17.758Z,5.07
2023-03-19T00:26:44.459Z,4.50
2023-03-19T00:29:13.084Z,3.83
2023-03-19T00:31:41.538Z,4.40
2023-03-19T00:34:09.853Z,4.10
2023-03-19T00:36:37.431Z,4.40
2023-03-19T00:39:05.000Z,3.40
2023-03-19T00:41:32.315Z,4.60
2023-03-19T00:44:00.246Z,4.93
2023-03-19T00:46:27.522Z,3.50
2023-03-19T00:48:55.650Z,4.37
2023-03-19T00:51:23.775Z,4.03
2023-03-19T00:53:51.013Z,4.63
2023-03-19T00:56:18.676Z,4.90
2023-03-19T00:58:45.728Z,4.40
2023-03-19T01:01:14.476Z,4.30
2023-03-19T01:03:41.617Z,4.03
2023-03-19T01:06:08.270Z,4.50
2023-03-19T01:08:35.421Z,3.90
2023-03-19T01:11:12.132Z,3.60
2023-03-19T01:13:39.031Z,4.33
2023-03-19T01:16:06.669Z,3.90
2023-03-19T01:18:33.505Z,4.80
2023-03-19T01:21:00.151Z,4.87
2023-03-19T01:23:27.328Z,4.67
2023-03-19T01:25:53.867Z,4.20
2023-03-19T01:28:20.502Z,4.67
2023-03-19T01:30:46.986Z,4.40
2023-03-19T01:33:14.044Z,4.30
2023-03-19T01:35:40.543Z,3.93
2023-03-19T01:38:07.978Z,3.73
2023-03-19T01:40:34.712Z,3.97
2023-03-19T01:43:23.181Z,4.53
2023-03-19T01:46:00.042Z,4.10
2023-03-19T01:48:59.776Z,3.80
2023-03-19T01:51:29.969Z,3.40
2023-03-19T01:54:00.650Z,3.80
2023-03-19T01:56:34.997Z,4.03
2023-03-19T01:59:08.308Z,3.90
2023-03-19T02:01:39.866Z,3.53
2023-03-19T02:04:07.318Z,4.07
2023-03-19T02:06:35.114Z,4.30
2023-03-19T02:09:02.745Z,4.33
2023-03-19T02:11:29.483Z,3.63
2023-03-19T02:13:55.956Z,3.47
2023-03-19T02:16:22.618Z,4.20
2023-03-19T02:18:49.527Z,4.00
2023-03-19T02:21:17.736Z,3.30
2023-03-19T02:24:08.947Z,3.50
2023-03-19T02:26:36.431Z,3.90
2023-03-19T02:29:04.138Z,3.87
2023-03-19T02:31:30.957Z,4.07
2023-03-19T02:34:06.578Z,3.97
2023-03-19T02:36:37.647Z,3.60
2023-03-19T02:39:08.664Z,3.30
2023-03-19T02:41:39.478Z,3.83
2023-03-19T02:44:07.860Z,3.87
2023-03-19T02:46:34.467Z,3.87
2023-03-19T02:49:01.012Z,4.47
2023-03-19T02:51:27.525Z,3.60
2023-03-19T02:53:54.005Z,3.70
2023-03-19T02:56:20.607Z,3.53
2023-03-19T02:58:47.145Z,3.50
2023-03-19T03:01:13.864Z,3.97
2023-03-19T03:03:40.392Z,3.50
2023-03-19T03:06:07.144Z,3.87
2023-03-19T03:08:33.609Z,3.80
2023-03-19T03:11:00.130Z,3.50
2023-03-19T03:13:27.826Z,3.90
2023-03-19T03:15:54.569Z,3.67
2023-03-19T03:18:21.123Z,3.93
2023-03-19T03:20:48.053Z,3.87
2023-03-19T03:23:14.516Z,4.30
2023-03-19T03:25:41.290Z,3.07
2023-03-19T03:28:07.755Z,3.83
2023-03-19T03:30:34.366Z,3.80
2023-03-19T03:33:01.497Z,3.20
2023-03-19T03:35:28.008Z,3.10
2023-03-19T03:37:55.152Z,3.07
2023-03-19T03:40:21.792Z,3.57
2023-03-19T03:42:48.303Z,3.00
2023-03-19T03:45:15.327Z,3.60
2023-03-19T03:47:42.160Z,3.53
2023-03-19T03:50:10.910Z,3.10
2023-03-19T03:52:38.349Z,3.70
2023-03-19T03:55:05.435Z,3.27
2023-03-19T03:57:31.875Z,3.83
2023-03-19T03:59:58.507Z,3.60
2023-03-19T04:02:25.288Z,3.67
2023-03-19T04:04:51.810Z,3.53
2023-03-19T04:07:18.456Z,3.63
2023-03-19T04:09:46.014Z,3.40
2023-03-19T04:12:15.970Z,3.67
2023-03-19T04:14:43.064Z,3.57
2023-03-19T04:17:09.721Z,3.53
2023-03-19T04:19:36.269Z,3.57
2023-03-19T04:22:03.523Z,3.50
2023-03-19T04:24:30.206Z,3.40
2023-03-19T04:26:56.735Z,3.37
2023-03-19T04:29:23.644Z,3.20
2023-03-19T04:31:50.981Z,3.50
2023-03-19T04:34:17.592Z,3.53
2023-03-19T04:36:44.185Z,3.83
2023-03-19T04:39:10.606Z,3.67
2023-03-19T04:41:37.551Z,3.60
2023-03-19T04:44:04.041Z,3.43
2023-03-19T04:46:30.709Z,3.80
2023-03-19T04:48:57.251Z,3.60
2023-03-19T04:51:24.028Z,3.73
2023-03-19T04:53:50.509Z,3.80
2023-03-19T04:56:17.977Z,3.67
2023-03-19T04:58:45.403Z,4.20
2023-03-19T05:01:11.938Z,3.90
2023-03-19T05:03:38.471Z,4.10
2023-03-19T05:06:05.319Z,3.70
2023-03-19T05:08:31.814Z,3.10
2023-03-19T05:10:58.270Z,3.30
2023-03-19T05:13:24.781Z,3.23
2023-03-19T05:15:53.685Z,4.37
2023-03-19T05:18:20.397Z,3.73
2023-03-19T05:20:47.177Z,3.50
2023-03-19T05:23:14.009Z,4.00
2023-03-19T05:25:40.816Z,3.43
2023-03-19T05:28:08.250Z,3.97
2023-03-19T05:30:36.042Z,4.30
2023-03-19T05:33:02.914Z,3.50
2023-03-19T05:35:30.523Z,3.83
2023-03-19T05:37:57.898Z,3.40
2023-03-19T05:40:24.886Z,3.10
2023-03-19T05:42:51.498Z,3.43
2023-03-19T05:45:18.347Z,3.60
2023-03-19T05:47:47.934Z,3.57
2023-03-19T05:50:14.501Z,3.27
2023-03-19T05:52:41.085Z,3.30
2023-03-19T05:55:08.323Z,3.80
2023-03-19T05:57:34.848Z,3.53
2023-03-19T06:00:01.674Z,4.00
2023-03-19T06:02:28.286Z,4.03
2023-03-19T06:04:54.745Z,3.30
2023-03-19T06:07:21.665Z,3.50
2023-03-19T06:09:48.065Z,3.27
2023-03-19T06:12:14.530Z,3.20
2023-03-19T06:14:41.065Z,4.07
2023-03-19T06:17:07.590Z,3.27
2023-03-19T06:19:34.103Z,3.30
2023-03-19T06:22:01.020Z,3.93
2023-03-19T06:24:30.426Z,3.40
2023-03-19T06:26:57.025Z,3.10
2023-03-19T06:29:23.545Z,2.70
2023-03-19T06:31:50.029Z,2.90
2023-03-19T06:34:16.573Z,3.47
2023-03-19T06:36:43.044Z,2.80
2023-03-19T06:39:10.160Z,2.50
2023-03-19T06:41:37.262Z,2.60
2023-03-19T06:44:04.726Z,3.20
2023-03-19T06:46:31.389Z,2.83
2023-03-19T06:48:57.966Z,3.20
2023-03-19T06:51:27.620Z,2.30
2023-03-19T06:53:54.945Z,2.83
2023-03-19T06:56:21.639Z,2.70
2023-03-19T06:58:48.133Z,2.67
2023-03-19T07:01:14.724Z,2.70
2023-03-19T07:03:41.252Z,2.60
2023-03-19T07:06:07.731Z,2.43
2023-03-19T07:08:34.224Z,2.77
2023-03-19T07:11:07.786Z,2.57
2023-03-19T07:13:34.546Z,2.77
2023-03-19T07:16:01.245Z,2.40
2023-03-19T07:18:27.840Z,3.53
2023-03-19T07:20:54.413Z,2.73
2023-03-19T07:23:20.950Z,2.87
2023-03-19T07:25:47.747Z,2.50
2023-03-19T07:28:15.545Z,3.30
2023-03-19T07:30:42.055Z,2.93
2023-03-19T07:33:08.800Z,2.50
2023-03-19T07:35:35.725Z,3.20
2023-03-19T07:38:02.720Z,2.60
2023-03-19T07:40:29.251Z,2.53
2023-03-19T07:42:55.731Z,3.13
2023-03-19T07:45:22.594Z,2.93
2023-03-19T07:47:52.564Z,2.60
2023-03-19T07:50:19.007Z,2.83
2023-03-19T07:52:47.796Z,2.63
2023-03-19T07:55:14.747Z,3.27
2023-03-19T07:57:41.543Z,2.90
2023-03-19T08:00:10.678Z,3.97
2023-03-19T08:02:37.224Z,3.00
2023-03-19T08:05:04.771Z,2.90
2023-03-19T08:07:32.261Z,2.63
2023-03-19T08:09:58.979Z,3.13
2023-03-19T08:12:26.018Z,2.80
2023-03-19T08:14:52.638Z,2.10
2023-03-19T08:17:19.209Z,3.33
2023-03-19T08:19:46.900Z,3.27
2023-03-19T08:22:13.753Z,3.30
2023-03-19T08:24:40.222Z,2.63
2023-03-19T08:27:07.778Z,2.97
2023-03-19T08:29:34.774Z,2.97
2023-03-19T08:32:01.414Z,2.90
2023-03-19T08:34:28.209Z,3.60
2023-03-19T08:36:54.709Z,3.20
2023-03-19T08:39:21.203Z,3.20
2023-03-19T08:41:47.660Z,3.47
2023-03-19T08:44:14.251Z,3.63
2023-03-19T08:46:42.499Z,3.90
2023-03-19T08:49:09.287Z,3.57
2023-03-19T08:51:36.336Z,3.80
2023-03-19T08:54:02.915Z,3.53
2023-03-19T08:56:29.410Z,3.10
2023-03-19T08:58:57.049Z,3.73
2023-03-19T09:01:24.370Z,3.10
2023-03-19T09:03:51.068Z,3.40
2023-03-19T09:06:17.772Z,3.50
2023-03-19T09:08:44.796Z,3.27
2023-03-19T09:11:11.425Z,3.60
2023-03-19T09:13:38.024Z,2.90
2023-03-19T09:16:05.232Z,3.83
2023-03-19T09:18:32.518Z,4.13
2023-03-19T09:20:59.067Z,2.90
2023-03-19T09:23:25.824Z,3.60
2023-03-19T09:25:52.347Z,3.37
2023-03-19T09:28:19.128Z,3.10
2023-03-19T09:30:47.827Z,3.27
2023-03-19T09:33:16.054Z,8.87
2023-03-19T09:35:43.449Z,5.20
2023-03-19T09:38:10.259Z,2.93
2023-03-19T09:40:44.037Z,2.87
2023-03-19T09:43:45.524Z,2.67
2023-03-19T09:46:21.944Z,3.00
2023-03-19T09:49:09.318Z,2.93
2023-03-19T09:51:44.775Z,3.50
2023-03-19T09:54:32.987Z,2.80
2023-03-19T09:57:01.025Z,2.70
2023-03-19T09:59:29.203Z,3.40
2023-03-19T10:02:18.083Z,2.77
2023-03-19T10:04:44.548Z,2.90
2023-03-19T10:07:31.245Z,2.80
2023-03-19T10:10:22.331Z,3.23
2023-03-19T10:13:09.347Z,3.40
2023-03-19T10:15:38.354Z,3.43
2023-03-19T10:18:21.688Z,3.27
2023-03-19T10:21:03.556Z,3.27
2023-03-19T10:23:35.633Z,3.33
2023-03-19T10:26:04.521Z,3.37
2023-03-19T10:28:31.425Z,3.97
2023-03-19T10:31:14.000Z,4.03
2023-03-19T10:34:18.658Z,4.57
2023-03-19T10:36:45.372Z,4.20
2023-03-19T10:39:15.524Z,3.47
2023-03-19T10:42:05.477Z,3.57
2023-03-19T10:44:36.904Z,3.90
2023-03-19T10:47:12.510Z,3.90
2023-03-19T10:49:38.992Z,3.87
2023-03-19T10:52:06.804Z,3.33
2023-03-19T10:54:33.354Z,3.80
2023-03-19T10:57:01.240Z,3.63
2023-03-19T10:59:33.381Z,4.03
2023-03-19T11:02:14.207Z,3.90
2023-03-19T11:04:40.750Z,3.80
2023-03-19T11:07:13.594Z,3.77
2023-03-19T11:09:42.776Z,3.90
2023-03-19T11:12:26.957Z,6.57
2023-03-19T11:14:56.860Z,3.70
2023-03-19T11:17:45.334Z,3.70
2023-03-19T11:20:27.504Z,4.40
2023-03-19T11:22:56.348Z,4.00
2023-03-19T11:25:35.986Z,4.30
2023-03-19T11:28:08.032Z,3.60
2023-03-19T11:30:57.171Z,3.87
2023-03-19T11:33:38.369Z,4.00
2023-03-19T11:36:28.854Z,5.93
2023-03-19T11:38:58.586Z,4.60
2023-03-19T11:41:47.139Z,4.00
2023-03-19T11:44:32.784Z,3.77
2023-03-19T11:47:14.825Z,4.47
2023-03-19T11:50:05.251Z,4.23
2023-03-19T11:52:50.347Z,4.13
2023-03-19T11:55:28.177Z,4.77
2023-03-19T11:58:14.591Z,4.70
2023-03-19T12:00:50.748Z,5.10
2023-03-19T12:03:40.248Z,4.87
2023-03-19T12:06:09.614Z,5.40
2023-03-19T12:08:49.556Z,5.10
2023-03-19T12:11:22.101Z,4.70
2023-03-19T12:14:14.272Z,5.30
2023-03-19T12:16:57.237Z,7.33
2023-03-19T12:19:35.736Z,6.10
2023-03-19T12:22:30.254Z,6.23
2023-03-19T12:25:22.551Z,5.37
2023-03-19T12:28:08.661Z,5.70
2023-03-19T12:30:48.362Z,5.93
2023-03-19T12:33:32.579Z,6.20
2023-03-19T12:36:01.476Z,6.37
2023-03-19T12:38:48.575Z,6.30
2023-03-19T12:41:23.860Z,7.03
2023-03-19T12:44:10.796Z,7.00
2023-03-19T12:46:45.878Z,6.70
2023-03-19T12:49:12.259Z,6.37
2023-03-19T12:51:43.308Z,6.80
2023-03-19T12:54:18.744Z,6.50
2023-03-19T12:56:55.906Z,7.47
2023-03-19T12:59:33.170Z,7.90
2023-03-19T13:02:09.850Z,7.70
2023-03-19T13:04:42.993Z,6.13
2023-03-19T13:07:18.396Z,6.00
2023-03-19T13:10:01.818Z,6.43
2023-03-19T13:12:32.000Z,5.90
2023-03-19T13:15:07.208Z,4.80
2023-03-19T13:17:41.530Z,5.77
2023-03-19T13:20:17.654Z,5.90
2023-03-19T13:22:53.004Z,6.90
2023-03-19T13:25:25.593Z,6.60
2023-03-19T13:27:55.764Z,6.40
2023-03-19T13:30:23.563Z,6.20
2023-03-19T13:33:05.217Z,6.37
2023-03-19T13:35:31.746Z,5.40
2023-03-19T13:38:02.486Z,5.13
2023-03-19T13:40:40.156Z,4.90
2023-03-19T13:43:28.298Z,6.20
2023-03-19T13:46:04.730Z,6.73
2023-03-19T13:48:38.848Z,6.47
2023-03-19T13:51:26.886Z,6.43
2023-03-19T13:54:08.260Z,6.60
2023-03-19T13:57:01.218Z,5.50
2023-03-19T13:59:38.694Z,5.40
2023-03-19T14:02:26.549Z,5.60
2023-03-19T14:05:11.773Z,5.10
2023-03-19T14:07:40.891Z,5.37
2023-03-19T14:10:15.937Z,5.10
2023-03-19T14:12:45.003Z,5.20
2023-03-19T14:15:23.882Z,11.07
2023-03-19T14:17:50.265Z,6.40
2023-03-19T14:20:35.431Z,5.23
2023-03-19T14:23:08.899Z,4.43
2023-03-19T14:25:54.403Z,4.83
2023-03-19T14:28:28.872Z,4.40
2023-03-19T14:30:56.909Z,3.60
2023-03-19T14:33:29.353Z,3.40
2023-03-19T14:35:57.040Z,4.10
2023-03-19T14:38:40.095Z,3.87
2023-03-19T14:41:12.725Z,4.10
2023-03-19T14:43:57.733Z,4.43
2023-03-19T14:46:51.602Z,4.33
2023-03-19T14:49:31.952Z,4.83
2023-03-19T14:52:09.671Z,4.20
2023-03-19T14:54:42.723Z,5.10
2023-03-19T14:57:18.165Z,6.00
2023-03-19T14:59:44.995Z,5.43
2023-03-19T15:02:45.187Z,5.50
2023-03-19T15:05:29.799Z,6.00
2023-03-19T15:08:03.325Z,5.43
2023-03-19T15:10:36.986Z,6.27
2023-03-19T15:13:21.897Z,6.10
2023-03-19T15:16:05.940Z,7.60
2023-03-19T15:18:32.805Z,8.10
2023-03-19T15:20:59.500Z,8.80
2023-03-19T15:23:28.535Z,8.87
2023-03-19T15:26:01.440Z,8.63
2023-03-19T15:28:32.314Z,8.17
2023-03-19T15:31:26.385Z,10.60
2023-03-19T15:33:52.874Z,21.27
2023-03-19T15:36:29.554Z,21.60
2023-03-19T15:39:04.042Z,11.60
2023-03-19T15:41:34.770Z,9.67
2023-03-19T15:44:05.299Z,8.10
2023-03-19T17:33:22.784Z,7.63
2023-03-19T17:35:49.700Z,7.63
2023-03-19T17:38:18.036Z,33.60
2023-03-19T17:40:44.977Z,8.33
2023-03-19T17:43:12.475Z,5.50
2023-03-19T17:45:42.586Z,10.30
2023-03-19T17:48:15.946Z,4.30
2023-03-19T17:50:42.572Z,4.30
2023-03-19T17:53:12.174Z,4.43
2023-03-19T17:55:38.646Z,5.07
2023-03-19T17:58:05.096Z,4.47
2023-03-19T18:00:31.673Z,4.60
2023-03-19T18:02:58.519Z,4.10
2023-03-19T18:05:26.320Z,4.67
2023-03-19T18:07:56.557Z,4.50
2023-03-19T18:10:30.336Z,4.13
2023-03-19T18:12:59.927Z,4.90
2023-03-19T18:15:29.257Z,4.80
2023-03-19T18:17:59.092Z,5.00
2023-03-19T18:20:29.491Z,4.43
2023-03-19T18:22:56.123Z,4.40
2023-03-19T18:25:25.513Z,5.10
2023-03-19T18:27:53.136Z,4.53
2023-03-19T18:30:22.845Z,4.30
2023-03-19T18:33:02.264Z,4.40
2023-03-19T18:35:41.357Z,4.70
2023-03-19T18:38:26.806Z,5.90
2023-03-19T18:40:54.937Z,5.23
2023-03-19T18:43:21.548Z,6.10
2023-03-19T18:45:53.405Z,4.93
2023-03-19T18:48:19.779Z,5.50
2023-03-19T18:50:47.586Z,5.50
2023-03-19T18:53:15.604Z,5.63
2023-03-19T18:55:42.760Z,8.77
2023-03-19T18:58:16.423Z,6.13
2023-03-19T19:00:42.991Z,5.10
2023-03-19T19:03:13.562Z,5.03
2023-03-19T19:05:40.162Z,4.70
2023-03-19T19:08:12.512Z,5.53
2023-03-19T19:10:46.141Z,5.30
2023-03-19T19:13:23.236Z,6.03
2023-03-19T19:15:49.788Z,5.40
2023-03-19T19:18:20.899Z,4.67
2023-03-19T19:20:49.621Z,4.40
2023-03-19T19:23:16.334Z,4.90
2023-03-19T19:25:46.040Z,4.63
2023-03-19T19:28:15.518Z,4.80
2023-03-19T19:30:42.371Z,4.07
2023-03-19T19:33:19.718Z,4.53
2023-03-19T19:35:46.588Z,8.23
2023-03-19T19:38:13.617Z,7.23
2023-03-19T19:40:43.153Z,5.00
2023-03-19T19:43:19.694Z,4.53
2023-03-19T19:45:48.528Z,5.00
2023-03-19T19:48:35.494Z,5.00
2023-03-19T19:51:01.984Z,5.20
2023-03-19T19:53:29.489Z,4.60
2023-03-19T19:55:56.364Z,4.83
2023-03-19T19:58:22.785Z,9.03
2023-03-19T20:01:02.414Z,7.60
2023-03-19T20:03:32.231Z,5.80
2023-03-19T20:05:59.912Z,5.80
2023-03-19T20:08:27.207Z,4.83
2023-03-19T20:10:54.420Z,5.10
2023-03-19T20:13:39.584Z,5.60
2023-03-19T20:16:06.531Z,5.70
2023-03-19T20:18:35.592Z,5.50
2023-03-19T20:21:04.058Z,5.43
2023-03-19T20:23:30.684Z,6.00
2023-03-19T20:25:58.238Z,6.60
2023-03-19T20:28:32.614Z,6.10
2023-03-19T20:31:00.011Z,8.57
2023-03-19T20:33:27.898Z,9.00
2023-03-19T20:35:54.978Z,11.07
2023-03-19T20:38:21.599Z,10.93
2023-03-19T20:40:56.389Z,15.90
2023-03-19T20:43:29.084Z,20.23
2023-03-19T20:46:02.873Z,20.93
2023-03-19T20:48:30.652Z,20.47
2023-03-19T20:50:59.960Z,31.47
2023-03-19T20:53:26.548Z,20.43
2023-03-19T20:55:53.839Z,20.97
2023-03-19T20:58:32.210Z,19.90
2023-03-19T21:00:59.311Z,21.23
2023-03-19T21:03:28.486Z,20.60
2023-03-19T21:06:01.874Z,19.97
2023-03-19T21:08:32.500Z,21.17
2023-03-19T21:11:00.277Z,19.67
2023-03-19T21:13:27.468Z,20.50
2023-03-19T21:15:54.700Z,19.00
2023-03-19T21:18:21.522Z,21.17
2023-03-19T21:20:54.524Z,21.97
2023-03-19T21:24:10.635Z,21.60
2023-03-19T21:26:39.295Z,20.50
2023-03-19T21:29:11.998Z,21.50
2023-03-19T21:31:38.494Z,21.40
2023-03-19T21:34:05.637Z,23.00
2023-03-19T21:36:32.174Z,22.70
2023-03-19T21:38:58.869Z,21.47
2023-03-19T21:41:33.289Z,24.20
2023-03-19T21:44:03.056Z,25.07
2023-03-19T21:46:30.836Z,23.03
2023-03-19T21:48:58.449Z,26.60
2023-03-19T21:51:26.688Z,24.40
2023-03-19T21:53:53.223Z,24.80
2023-03-19T21:56:27.856Z,24.00
2023-03-19T21:58:54.420Z,23.57
2023-03-19T22:01:24.405Z,24.73
2023-03-19T22:03:55.421Z,23.63
2023-03-19T22:06:22.142Z,23.27
2023-03-19T22:08:49.093Z,24.27
2023-03-19T22:11:20.682Z,21.57
2023-03-19T22:13:47.731Z,24.93
2023-03-19T22:16:20.960Z,23.60
2023-03-19T22:18:47.881Z,24.40
2023-03-19T22:21:17.772Z,24.60
2023-03-19T22:23:45.916Z,23.23
2023-03-19T22:26:33.721Z,23.50
2023-03-19T22:29:03.433Z,23.43
2023-03-19T22:31:30.640Z,23.30
2023-03-19T22:33:57.478Z,20.60
2023-03-19T22:36:23.977Z,19.43
2023-03-19T22:38:50.674Z,18.47
2023-03-19T22:41:31.804Z,18.63
2023-03-19T22:44:00.786Z,16.30
2023-03-19T22:46:27.943Z,16.03
2023-03-19T22:48:54.823Z,15.60
2023-03-19T22:51:25.527Z,15.80
2023-03-19T22:53:52.715Z,15.40
2023-03-19T22:56:21.325Z,13.83
2023-03-19T22:58:48.711Z,13.77
2023-03-19T23:01:39.748Z,13.47
2023-03-19T23:04:26.322Z,13.20
2023-03-19T23:06:54.286Z,12.93
2023-03-19T23:09:24.090Z,13.00
2023-03-19T23:11:51.557Z,11.90
2023-03-19T23:14:29.188Z,12.67
2023-03-19T23:19:31.417Z,10.50
2023-03-19T23:21:59.562Z,10.80
2023-03-19T23:24:26.645Z,10.43
2023-03-19T23:26:55.219Z,10.47
2023-03-19T23:29:24.732Z,9.90
2023-03-19T23:31:51.879Z,9.90
2023-03-19T23:34:18.422Z,9.90
2023-03-19T23:36:45.133Z,9.83
2023-03-19T23:39:11.781Z,9.70
2023-03-19T23:41:48.365Z,9.80
2023-03-19T23:44:17.627Z,10.20
2023-03-19T23:46:49.228Z,10.57
2023-03-19T23:49:22.073Z,10.97
2023-03-19T23:51:48.554Z,10.00
2023-03-19T23:54:29.327Z,10.80
2023-03-19T23:56:59.695Z,10.63
2023-03-19T23:59:29.384Z,11.30
